Humidity-temperature Sensor

Selected Measurement Type: Air Temperature

 
Air Temperature [°C]     6 entries per hour
Showing data from 4/11/2021 (00:00:00 Z) to 4/8/2021 (00:01:00 Z)
Previous Next [ Day | 3-Days | 7-Days ]
First Last
Prev [ Day | 3-Days | 7-Days ] Next
First Last

Start Time:     :
End Time:     :     
Time (in GMT) :00 :50 :40 :30 :20 :10
Previous Next [ Day | 3-Days | 7-Days ]
First Last
Prev [ Day | 3-Days | 7-Days ] Next
First Last


123 => good data
MM => data is determined as missing
-- => data not received/configured
Back to Top Back to Top
4/11/2021 00:00 to 23:10 28.01 28.03 27.97 27.72 27.99 28.05
4/10/2021 23:00 to 22:10 28.13 28.04 27.93 27.73 27.93 27.94
4/10/2021 22:00 to 21:10 27.63 27.57 27.66 27.65 27.66 27.67
4/10/2021 21:00 to 20:10 27.51 27.57 27.71 27.50 27.26 27.43
4/10/2021 20:00 to 19:10 27.37 27.06 27.02 26.81 26.55 26.45
4/10/2021 19:00 to 18:10 26.11 25.96 26.17 26.34 26.72 26.76
4/10/2021 18:00 to 17:10 26.61 26.38 26.32 26.18 25.84 25.84
4/10/2021 17:00 to 16:10 26.05 25.98 25.83 26.08 26.30 26.10
4/10/2021 16:00 to 15:10 26.04 26.44 27.23 27.08 27.15 27.15
4/10/2021 15:00 to 14:10 26.97 27.02 27.10 26.90 26.95 26.91
4/10/2021 14:00 to 13:10 27.04 27.18 26.83 26.83 26.79 26.74
4/10/2021 13:00 to 12:10 26.67 26.63 26.77 26.66 26.57 26.66
4/10/2021 12:00 to 11:10 26.65 26.59 26.55 26.58 26.40 26.45
4/10/2021 11:00 to 10:10 26.52 26.39 26.39 26.51 26.41 26.43
4/10/2021 10:00 to 9:10 26.37 26.37 26.60 26.43 26.39 26.34
4/10/2021 09:00 to 8:10 26.56 26.67 26.80 26.76 26.84 26.92
4/10/2021 08:00 to 7:10 26.89 26.84 26.84 26.75 26.83 26.80
4/10/2021 07:00 to 6:10 26.77 27.00 26.79 26.90 26.92 26.96
4/10/2021 06:00 to 5:10 26.86 26.85 26.86 26.88 26.89 27.00
4/10/2021 05:00 to 4:10 26.90 26.98 27.01 26.91 26.95 27.05
4/10/2021 04:00 to 3:10 26.98 27.01 27.23 26.92 27.01 27.02
4/10/2021 03:00 to 2:10 26.99 26.92 26.99 27.06 27.13 26.99
4/10/2021 02:00 to 1:10 27.08 27.01 26.95 27.18 26.85 27.15
4/10/2021 01:00 to 0:10 27.04 26.81 26.78 26.69 26.72 26.75
4/10/2021 00:00 to 23:10 26.97 27.06 26.99 26.98 27.04 27.29
4/9/2021 23:00 to 22:10 27.40 27.03 27.01 27.02 26.86 26.58
4/9/2021 22:00 to 21:10 26.62 26.44 26.28 26.39 26.54 26.65
4/9/2021 21:00 to 20:10 26.81 27.10 26.89 26.94 26.91 26.84
4/9/2021 20:00 to 19:10 26.87 26.58 26.63 26.65 26.45 26.69
4/9/2021 19:00 to 18:10 26.86 26.84 26.60 26.79 27.00 26.89
4/9/2021 18:00 to 17:10 27.00 26.83 26.88 26.51 26.52 26.57
4/9/2021 17:00 to 16:10 26.71 26.58 26.66 26.47 26.46 26.53
4/9/2021 16:00 to 15:10 26.47 26.51 26.55 26.30 26.19 26.08
4/9/2021 15:00 to 14:10 26.02 26.04 25.97 25.84 25.71 25.56
4/9/2021 14:00 to 13:10 25.44 25.14 25.10 24.59 24.48 24.34
4/9/2021 13:00 to 12:10 24.35 24.10 24.27 24.29 24.27 24.02
4/9/2021 12:00 to 11:10 24.09 23.93 23.86 23.73 23.63 23.55
4/9/2021 11:00 to 10:10 23.59 23.41 23.54 23.72 23.78 23.71
4/9/2021 10:00 to 9:10 23.39 23.64 23.48 23.63 23.34 23.10
4/9/2021 09:00 to 8:10 23.17 23.14 23.10 23.11 23.27 23.17
4/9/2021 08:00 to 7:10 23.03 23.40 23.58 23.43 23.72 24.04
4/9/2021 07:00 to 6:10 24.24 24.33 24.54 24.49 24.49 24.38
4/9/2021 06:00 to 5:10 25.04 24.97 25.22 25.28 25.40 25.44
4/9/2021 05:00 to 4:10 25.40 25.37 25.58 25.54 25.71 25.85
4/9/2021 04:00 to 3:10 25.71 25.82 26.20 26.12 26.08 26.23
4/9/2021 03:00 to 2:10 26.38 26.13 26.11 26.14 26.11 26.30
4/9/2021 02:00 to 1:10 26.53 26.68 26.57 26.73 26.54 26.55
4/9/2021 01:00 to 0:10 26.53 26.41 26.34 26.18 26.17 26.12
4/9/2021 00:00 to 23:10 26.00 25.64 25.87 26.00 25.96 25.66
4/8/2021 23:00 to 22:10 25.85 25.67 25.73 26.13 26.15 25.90
4/8/2021 22:00 to 21:10 26.31 26.70 26.99 26.97 27.06 26.83
4/8/2021 21:00 to 20:10 26.82 26.82 26.81 26.60 26.59 26.42
4/8/2021 20:00 to 19:10 26.18 26.47 26.63 27.30 27.68 27.52
4/8/2021 19:00 to 18:10 27.34 27.35 27.29 27.05 26.87 26.98
4/8/2021 18:00 to 17:10 26.96 26.87 26.93 27.34 27.36 27.05
4/8/2021 17:00 to 16:10 26.79 27.05 26.95 27.22 27.17 26.93
4/8/2021 16:00 to 15:10 26.90 26.92 27.02 26.85 26.94 26.96
4/8/2021 15:00 to 14:10 27.02 27.19 27.41 27.52 27.41 27.40
4/8/2021 14:00 to 13:10 27.32 27.01 26.93 26.74 26.89 26.80
4/8/2021 13:00 to 12:10 26.66 26.59 26.52 26.52 26.46 26.44
4/8/2021 12:00 to 11:10 26.16 25.95 25.91 25.93 26.08 25.98
4/8/2021 11:00 to 10:10 25.90 25.85 25.74 26.24 25.97 26.31
4/8/2021 10:00 to 9:10 26.37 26.85 27.15 27.04 26.85 27.07
4/8/2021 09:00 to 8:10 26.93 27.19 26.82 26.75 26.78 26.72
4/8/2021 08:00 to 7:10 26.52 25.99 25.99 26.62 26.74 26.72
4/8/2021 07:00 to 6:10 26.61 26.86 27.30 27.80 27.92 27.90
4/8/2021 06:00 to 5:10 27.87 27.91 27.96 27.96 27.99 28.11
4/8/2021 05:00 to 4:10 28.02 28.13 28.28 28.29 28.19 28.20
4/8/2021 04:00 to 3:10 28.24 28.36 28.40 28.40 28.28 28.40
4/8/2021 03:00 to 2:10 28.27 28.37 28.35 28.32 28.34 28.26
4/8/2021 02:00 to 1:10 28.32 28.27 28.34 28.31 28.31 28.37
4/8/2021 01:00 to 0:10 28.40 28.40 28.39 28.35 28.35 28.87